createdAt,value
2022-08-20T00:01:11.669Z,4.15
2022-08-20T00:03:41.556Z,4.70
2022-08-20T00:06:18.426Z,4.90
2022-08-20T00:08:46.511Z,4.83
2022-08-20T00:11:17.161Z,4.50
2022-08-20T00:13:48.060Z,4.60
2022-08-20T00:16:16.535Z,4.75
2022-08-20T00:18:44.231Z,5.05
2022-08-20T00:21:18.048Z,4.72
2022-08-20T00:23:48.645Z,4.60
2022-08-20T00:26:16.528Z,4.88
2022-08-20T00:28:43.526Z,5.07
2022-08-20T00:31:12.052Z,5.40
2022-08-20T00:33:40.095Z,5.45
2022-08-20T00:36:09.975Z,5.30
2022-08-20T00:38:38.984Z,5.22
2022-08-20T00:41:07.484Z,4.88
2022-08-20T00:43:43.734Z,5.20
2022-08-20T00:46:19.050Z,5.28
2022-08-20T00:48:48.475Z,5.47
2022-08-20T00:51:38.544Z,5.10
2022-08-20T00:54:46.056Z,5.03
2022-08-20T00:57:16.960Z,5.40
2022-08-20T00:59:44.683Z,5.10
2022-08-20T01:02:14.174Z,5.10
2022-08-20T01:04:43.946Z,5.28
2022-08-20T01:07:11.661Z,5.20
2022-08-20T01:09:58.038Z,5.72
2022-08-20T01:12:27.475Z,5.20
2022-08-20T01:14:55.632Z,5.18
2022-08-20T01:17:25.128Z,4.90
2022-08-20T01:19:56.369Z,4.95
2022-08-20T01:22:58.041Z,5.28
2022-08-20T01:25:39.345Z,5.57
2022-08-20T01:28:06.869Z,5.00
2022-08-20T01:30:34.360Z,5.18
2022-08-20T01:33:02.660Z,5.00
2022-08-20T01:35:31.834Z,5.00
2022-08-20T01:37:58.800Z,5.15
2022-08-20T01:41:12.250Z,5.22
2022-08-20T01:43:40.718Z,5.15
2022-08-20T01:46:10.304Z,5.30
2022-08-20T01:48:38.833Z,5.40
2022-08-20T01:51:19.265Z,5.00
2022-08-20T01:53:50.587Z,4.97
2022-08-20T01:56:22.042Z,4.85
2022-08-20T01:58:58.813Z,5.00
2022-08-20T02:01:40.898Z,4.85
2022-08-20T02:04:15.587Z,5.15
2022-08-20T02:06:56.195Z,5.30
2022-08-20T02:09:32.306Z,5.20
2022-08-20T02:11:59.410Z,5.60
2022-08-20T02:14:28.864Z,4.82
2022-08-20T02:16:58.955Z,5.07
2022-08-20T02:19:39.213Z,5.50
2022-08-20T02:22:17.497Z,5.38
2022-08-20T02:24:44.686Z,5.32
2022-08-20T02:27:11.953Z,5.00
2022-08-20T02:29:39.813Z,5.78
2022-08-20T02:32:24.457Z,5.47
2022-08-20T02:34:55.231Z,4.97
2022-08-20T02:37:22.208Z,5.35
2022-08-20T02:39:49.132Z,5.30
2022-08-20T02:42:17.478Z,5.15
2022-08-20T02:44:44.438Z,5.38
2022-08-20T02:47:11.400Z,5.53
2022-08-20T02:49:38.378Z,6.07
2022-08-20T02:52:05.568Z,5.53
2022-08-20T02:54:32.611Z,6.05
2022-08-20T02:56:59.463Z,5.55
2022-08-20T02:59:27.371Z,5.63
2022-08-20T03:01:59.519Z,5.75
2022-08-20T03:04:28.581Z,5.60
2022-08-20T03:06:55.788Z,5.35
2022-08-20T03:09:22.490Z,5.28
2022-08-20T03:11:49.488Z,5.10
2022-08-20T03:14:16.852Z,5.22
2022-08-20T03:16:43.720Z,4.72
2022-08-20T03:19:10.649Z,5.30
2022-08-20T03:21:37.486Z,5.50
2022-08-20T03:24:05.177Z,5.30
2022-08-20T03:26:32.218Z,5.70
2022-08-20T03:28:59.287Z,5.72
2022-08-20T03:31:26.445Z,6.47
2022-08-20T03:33:53.959Z,7.82
2022-08-20T03:36:28.074Z,6.97
2022-08-20T03:39:01.621Z,7.35
2022-08-20T03:41:29.366Z,7.15
2022-08-20T03:43:56.254Z,7.20
2022-08-20T03:46:24.097Z,7.43
2022-08-20T03:48:59.607Z,7.30
2022-08-20T03:51:29.149Z,6.72
2022-08-20T03:53:56.735Z,6.65
2022-08-20T03:56:23.703Z,6.25
2022-08-20T03:58:50.636Z,6.40
2022-08-20T04:01:37.046Z,6.20
2022-08-20T04:04:04.629Z,6.30
2022-08-20T04:06:31.478Z,6.18
2022-08-20T04:08:58.280Z,6.15
2022-08-20T04:11:25.343Z,6.32
2022-08-20T04:13:52.279Z,6.35
2022-08-20T04:16:19.991Z,6.22
2022-08-20T04:19:01.971Z,6.55
2022-08-20T04:21:33.158Z,6.18
2022-08-20T04:24:01.821Z,6.55
2022-08-20T04:26:28.610Z,6.68
2022-08-20T04:28:56.099Z,6.85
2022-08-20T04:31:33.804Z,6.90
2022-08-20T04:34:02.175Z,6.85
2022-08-20T04:36:29.805Z,6.88
2022-08-20T04:38:56.848Z,7.20
2022-08-20T04:41:24.545Z,7.20
2022-08-20T04:43:56.909Z,7.00
2022-08-20T04:46:26.135Z,7.13
2022-08-20T04:48:54.166Z,7.55
2022-08-20T04:51:22.932Z,7.20
2022-08-20T04:53:53.223Z,7.07
2022-08-20T04:56:24.162Z,7.40
2022-08-20T04:58:52.547Z,7.80
2022-08-20T05:01:19.980Z,8.13
2022-08-20T05:03:49.859Z,8.25
2022-08-20T05:06:18.484Z,7.93
2022-08-20T05:08:45.669Z,8.43
2022-08-20T05:11:33.945Z,8.23
2022-08-20T05:14:01.467Z,9.40
2022-08-20T05:16:28.800Z,10.18
2022-08-20T05:18:55.677Z,9.18
2022-08-20T05:21:22.675Z,8.82
2022-08-20T05:23:49.680Z,9.60
2022-08-20T05:26:17.262Z,9.15
2022-08-20T05:28:58.743Z,9.80
2022-08-20T05:31:32.093Z,10.43
2022-08-20T05:34:11.054Z,9.60
2022-08-20T05:36:40.279Z,8.63
2022-08-20T05:39:07.532Z,10.27
2022-08-20T05:41:34.279Z,10.82
2022-08-20T05:44:01.655Z,9.93
2022-08-20T05:46:32.291Z,10.10
2022-08-20T05:49:02.137Z,10.57
2022-08-20T05:51:30.187Z,10.75
2022-08-20T05:53:59.432Z,10.25
2022-08-20T05:56:30.944Z,10.30
2022-08-20T05:59:01.951Z,11.05
2022-08-20T06:01:29.531Z,10.60
2022-08-20T06:04:14.960Z,9.45
2022-08-20T06:06:45.525Z,10.40
2022-08-20T06:09:14.763Z,10.48
2022-08-20T06:11:41.752Z,9.63
2022-08-20T06:14:08.875Z,10.73
2022-08-20T06:16:37.433Z,9.73
2022-08-20T06:19:05.825Z,9.30
2022-08-20T06:21:33.013Z,9.65
2022-08-20T06:24:02.461Z,9.75
2022-08-20T06:26:31.171Z,10.02
2022-08-20T06:29:03.101Z,10.40
2022-08-20T06:31:30.017Z,9.75
2022-08-20T06:33:57.633Z,10.82
2022-08-20T06:36:25.218Z,10.52
2022-08-20T06:38:52.235Z,11.32
2022-08-20T06:41:19.128Z,11.32
2022-08-20T06:43:47.017Z,10.95
2022-08-20T06:46:14.911Z,10.95
2022-08-20T06:48:42.224Z,10.88
2022-08-20T06:51:10.176Z,10.05
2022-08-20T06:53:37.357Z,10.75
2022-08-20T06:56:04.717Z,10.55
2022-08-20T06:58:37.147Z,10.02
2022-08-20T07:01:11.078Z,11.35
2022-08-20T07:03:54.713Z,12.13
2022-08-20T07:06:25.940Z,11.18
2022-08-20T07:08:54.103Z,11.00
2022-08-20T07:11:27.371Z,11.85
2022-08-20T07:16:24.360Z,14.27
2022-08-20T07:18:51.394Z,15.15
2022-08-20T07:21:19.164Z,13.25
2022-08-20T07:23:46.102Z,14.10
2022-08-20T07:26:13.723Z,15.77
2022-08-20T07:28:40.737Z,15.15
2022-08-20T07:31:27.335Z,15.38
2022-08-20T07:33:58.685Z,15.73
2022-08-20T07:36:27.535Z,16.52
2022-08-20T07:38:55.002Z,16.42
2022-08-20T07:41:24.331Z,16.63
2022-08-20T07:43:51.228Z,15.70
2022-08-20T07:46:21.811Z,15.18
2022-08-20T07:48:50.657Z,15.82
2022-08-20T07:51:19.991Z,15.05
2022-08-20T07:53:47.871Z,15.02
2022-08-20T07:56:17.962Z,14.75
2022-08-20T07:58:50.626Z,15.20
2022-08-20T08:01:26.262Z,14.43
2022-08-20T08:03:53.694Z,11.65
2022-08-20T08:06:28.547Z,10.60
2022-08-20T08:08:59.039Z,9.18
2022-08-20T08:11:25.893Z,9.40
2022-08-20T08:13:53.202Z,9.85
2022-08-20T08:16:21.640Z,10.40
2022-08-20T08:18:51.070Z,10.68
2022-08-20T08:21:22.553Z,10.88
2022-08-20T08:23:50.391Z,12.18
2022-08-20T08:26:19.017Z,13.65
2022-08-20T08:28:50.823Z,15.10
2022-08-20T08:31:18.076Z,15.85
2022-08-20T08:33:45.058Z,15.18
2022-08-20T08:36:15.358Z,13.27
2022-08-20T08:38:44.610Z,14.27
2022-08-20T08:41:29.954Z,12.60
2022-08-20T08:44:05.134Z,13.18
2022-08-20T08:46:33.666Z,12.23
2022-08-20T08:49:02.031Z,12.02
2022-08-20T08:51:38.372Z,11.98
2022-08-20T08:54:07.274Z,11.57
2022-08-20T08:56:35.970Z,12.35
2022-08-20T08:59:10.569Z,13.85
2022-08-20T09:01:55.615Z,14.65
2022-08-20T09:04:35.229Z,14.35
2022-08-20T09:07:03.504Z,13.80
2022-08-20T09:09:34.198Z,13.55
2022-08-20T09:12:12.163Z,13.73
2022-08-20T09:14:39.525Z,14.30
2022-08-20T09:17:06.415Z,12.73
2022-08-20T09:19:34.233Z,13.13
2022-08-20T09:22:08.237Z,12.63
2022-08-20T09:24:35.131Z,12.60
2022-08-20T09:27:01.936Z,12.48
2022-08-20T09:29:29.699Z,11.27
2022-08-20T09:32:07.029Z,11.45
2022-08-20T09:34:42.379Z,10.38
2022-08-20T09:37:09.525Z,10.88
2022-08-20T09:39:37.211Z,11.27
2022-08-20T09:42:12.098Z,10.40
2022-08-20T09:44:39.661Z,10.43
2022-08-20T09:47:06.748Z,9.55
2022-08-20T09:49:33.969Z,9.43
2022-08-20T09:52:01.765Z,9.20
2022-08-20T09:54:31.618Z,8.07
2022-08-20T09:56:59.136Z,7.68
2022-08-20T09:59:26.434Z,7.10
2022-08-20T10:01:53.183Z,4.55
2022-08-20T10:04:20.413Z,4.55
2022-08-20T10:06:47.518Z,4.75
2022-08-20T10:09:14.789Z,4.47
2022-08-20T10:11:42.077Z,4.00
2022-08-20T10:14:11.628Z,4.13
2022-08-20T10:16:38.745Z,4.50
2022-08-20T10:19:06.031Z,4.07
2022-08-20T10:21:37.999Z,4.90
2022-08-20T10:24:05.776Z,4.78
2022-08-20T10:26:38.328Z,4.82
2022-08-20T10:29:05.188Z,4.15
2022-08-20T10:31:32.023Z,4.85
2022-08-20T10:33:59.072Z,4.60
2022-08-20T10:36:26.015Z,4.47
2022-08-20T10:38:53.502Z,4.80
2022-08-20T10:41:20.439Z,4.68
2022-08-20T10:43:47.575Z,4.60
2022-08-20T10:46:14.699Z,5.18
2022-08-20T10:48:41.565Z,4.57
2022-08-20T10:51:08.502Z,4.82
2022-08-20T10:53:35.275Z,4.80
2022-08-20T10:56:02.374Z,5.55
2022-08-20T10:58:39.556Z,4.80
2022-08-20T11:01:07.978Z,3.85
2022-08-20T11:03:35.725Z,3.40
2022-08-20T11:06:02.758Z,3.92
2022-08-20T11:08:33.777Z,3.80
2022-08-20T11:11:01.909Z,4.30
2022-08-20T11:13:28.920Z,3.00
2022-08-20T11:15:56.213Z,3.00
2022-08-20T11:18:22.926Z,2.78
2022-08-20T11:20:49.959Z,3.17
2022-08-20T11:23:16.745Z,2.80
2022-08-20T11:25:43.997Z,2.80
2022-08-20T11:28:11.143Z,2.08
2022-08-20T11:30:39.474Z,2.55
2022-08-20T11:33:06.646Z,2.50
2022-08-20T11:35:48.948Z,1.60
2022-08-20T11:38:17.312Z,1.70
2022-08-20T11:40:44.102Z,1.65
2022-08-20T11:43:15.518Z,1.25
2022-08-20T11:45:44.636Z,1.58
2022-08-20T11:48:11.445Z,1.50
2022-08-20T11:50:38.278Z,1.63
2022-08-20T11:53:05.273Z,1.80
2022-08-20T11:55:34.634Z,1.40
2022-08-20T11:58:01.966Z,1.48
2022-08-20T12:00:32.551Z,1.35
2022-08-20T12:03:01.271Z,1.20
2022-08-20T12:05:30.281Z,1.40
2022-08-20T12:07:58.234Z,1.23
2022-08-20T12:10:27.094Z,1.30
2022-08-20T12:12:54.599Z,1.70
2022-08-20T12:15:21.383Z,1.20
2022-08-20T12:17:48.222Z,1.20
2022-08-20T12:20:15.814Z,1.10
2022-08-20T12:22:44.080Z,1.60
2022-08-20T12:25:11.798Z,1.20
2022-08-20T12:27:39.112Z,1.20
2022-08-20T12:30:10.556Z,1.52
2022-08-20T12:32:37.874Z,2.13
2022-08-20T12:35:06.480Z,1.45
2022-08-20T12:37:34.579Z,1.65
2022-08-20T12:40:04.748Z,1.48
2022-08-20T12:42:31.908Z,1.42
2022-08-20T12:44:59.963Z,1.30
2022-08-20T12:47:31.110Z,1.20
2022-08-20T12:50:13.232Z,1.30
2022-08-20T12:52:40.867Z,1.10
2022-08-20T12:55:09.470Z,0.93
2022-08-20T12:57:45.651Z,1.33
2022-08-20T13:00:23.732Z,1.25
2022-08-20T13:02:55.920Z,1.30
2022-08-20T13:05:23.673Z,1.20
2022-08-20T13:07:50.741Z,1.40
2022-08-20T13:10:22.689Z,1.13
2022-08-20T13:12:50.422Z,1.67
2022-08-20T13:15:17.530Z,1.60
2022-08-20T13:17:45.252Z,1.35
2022-08-20T13:20:15.528Z,1.48
2022-08-20T13:22:43.173Z,1.10
2022-08-20T13:25:11.734Z,1.15
2022-08-20T13:27:40.655Z,1.10
2022-08-20T13:30:09.594Z,1.02
2022-08-20T13:32:36.901Z,1.17
2022-08-20T13:35:04.054Z,1.88
2022-08-20T13:37:31.855Z,0.90
2022-08-20T13:39:59.305Z,1.05
2022-08-20T13:42:27.732Z,1.15
2022-08-20T13:44:55.724Z,1.20
2022-08-20T13:47:29.253Z,1.60
2022-08-20T13:50:17.249Z,1.77
2022-08-20T13:52:44.856Z,1.65
2022-08-20T13:55:16.337Z,1.67
2022-08-20T13:57:44.134Z,1.50
2022-08-20T14:00:26.383Z,2.25
2022-08-20T14:02:55.202Z,2.97
2022-08-20T14:05:22.659Z,2.17
2022-08-20T14:07:50.163Z,1.30
2022-08-20T14:10:26.584Z,1.33
2022-08-20T14:12:57.114Z,1.35
2022-08-20T14:15:27.888Z,1.30
2022-08-20T14:17:56.459Z,1.10
2022-08-20T14:20:29.146Z,1.27
2022-08-20T14:22:57.021Z,1.00
2022-08-20T14:25:24.923Z,1.00
2022-08-20T14:27:52.673Z,1.10
2022-08-20T14:30:25.355Z,2.15
2022-08-20T14:32:53.197Z,1.88
2022-08-20T14:35:20.354Z,1.42
2022-08-20T14:37:50.410Z,1.10
2022-08-20T14:40:18.376Z,1.20
2022-08-20T14:42:47.732Z,1.15
2022-08-20T14:45:19.736Z,1.23
2022-08-20T14:47:55.720Z,1.92
2022-08-20T14:50:31.523Z,1.60
2022-08-20T14:52:59.274Z,1.67
2022-08-20T14:55:30.262Z,1.65
2022-08-20T14:57:57.618Z,1.20
2022-08-20T15:00:30.593Z,1.27
2022-08-20T15:02:57.926Z,1.10
2022-08-20T15:05:25.200Z,6.13
2022-08-20T15:07:54.064Z,2.15
2022-08-20T15:10:32.176Z,1.40
2022-08-20T15:12:59.593Z,1.40
2022-08-20T15:15:26.601Z,5.95
2022-08-20T15:17:55.711Z,1.13
2022-08-20T15:20:25.978Z,1.90
2022-08-20T15:22:53.436Z,1.75
2022-08-20T15:25:24.723Z,1.40
2022-08-20T15:28:01.526Z,1.45
2022-08-20T15:30:30.588Z,0.98
2022-08-20T15:32:57.719Z,0.98
2022-08-20T15:35:26.617Z,1.80
2022-08-20T15:37:55.327Z,1.10
2022-08-20T15:40:27.882Z,0.90
2022-08-20T15:42:56.460Z,1.20
2022-08-20T15:45:23.661Z,1.00
2022-08-20T15:47:56.133Z,1.17
2022-08-20T15:51:08.757Z,1.05
2022-08-20T15:53:46.379Z,0.90
2022-08-20T15:56:47.196Z,1.00
2022-08-20T15:59:49.472Z,1.00
2022-08-20T16:02:53.698Z,1.17
2022-08-20T16:05:29.317Z,1.10
2022-08-20T16:08:13.893Z,1.10
2022-08-20T16:11:04.986Z,1.15
2022-08-20T16:13:40.635Z,1.30
2022-08-20T16:16:17.511Z,0.95
2022-08-20T16:18:47.961Z,1.00
2022-08-20T16:21:17.724Z,1.20
2022-08-20T16:23:45.185Z,1.10
2022-08-20T16:27:07.534Z,1.10
2022-08-20T16:29:47.584Z,1.00
2022-08-20T16:32:38.306Z,1.00
2022-08-20T16:35:29.022Z,1.08
2022-08-20T16:38:13.534Z,1.13
2022-08-20T16:40:57.477Z,1.30
2022-08-20T16:43:35.769Z,1.17
2022-08-20T16:46:06.616Z,1.05
2022-08-20T16:48:40.657Z,1.17
2022-08-20T16:51:20.264Z,1.15
2022-08-20T16:53:47.170Z,1.40
2022-08-20T16:56:13.925Z,3.75
2022-08-20T16:58:45.530Z,1.50
2022-08-20T17:01:14.227Z,1.40
2022-08-20T17:03:50.508Z,1.40
2022-08-20T17:06:36.919Z,1.30
2022-08-20T17:09:15.190Z,1.60
2022-08-20T17:11:48.259Z,1.40
2022-08-20T17:14:18.373Z,1.40
2022-08-20T17:16:51.850Z,1.42
2022-08-20T17:19:30.879Z,1.63
2022-08-20T17:22:11.040Z,1.60
2022-08-20T17:24:38.297Z,1.40
2022-08-20T17:27:15.596Z,1.70
2022-08-20T17:29:52.464Z,1.70
2022-08-20T17:32:28.343Z,1.60
2022-08-20T17:34:58.312Z,1.38
2022-08-20T17:37:33.509Z,1.50
2022-08-20T17:40:16.130Z,1.50
2022-08-20T17:42:57.478Z,1.50
2022-08-20T17:45:46.084Z,1.67
2022-08-20T17:48:20.873Z,1.48
2022-08-20T17:50:47.756Z,1.70
2022-08-20T17:53:23.418Z,1.60
2022-08-20T17:55:54.141Z,1.80
2022-08-20T17:58:21.613Z,1.70
2022-08-20T18:00:48.872Z,1.70
2022-08-20T18:03:24.368Z,2.50
2022-08-20T18:06:02.159Z,2.40
2022-08-20T18:08:39.994Z,2.40
2022-08-20T18:11:39.496Z,1.77
2022-08-20T18:14:37.140Z,1.60
2022-08-20T18:17:41.855Z,2.03
2022-08-20T18:20:56.720Z,2.78
2022-08-20T18:23:28.910Z,2.28
2022-08-20T18:26:03.852Z,2.78
2022-08-20T18:28:38.722Z,1.98
2022-08-20T18:31:10.822Z,1.70
2022-08-20T18:33:46.328Z,2.13
2022-08-20T18:36:28.167Z,1.80
2022-08-20T18:39:05.523Z,1.90
2022-08-20T18:41:56.753Z,1.98
2022-08-20T18:44:44.102Z,1.80
2022-08-20T18:47:45.137Z,1.90
2022-08-20T18:50:46.774Z,1.60
2022-08-20T18:53:20.959Z,2.63
2022-08-20T18:56:01.645Z,3.35
2022-08-20T18:59:10.398Z,3.33
2022-08-20T19:01:39.017Z,3.00
2022-08-20T19:04:30.129Z,2.60
2022-08-20T19:07:03.819Z,2.10
2022-08-20T19:09:53.107Z,2.05
2022-08-20T19:12:38.571Z,2.10
2022-08-20T19:15:08.724Z,2.40
2022-08-20T19:17:44.272Z,2.60
2022-08-20T19:20:18.738Z,2.30
2022-08-20T19:22:47.791Z,2.63
2022-08-20T19:25:30.951Z,2.17
2022-08-20T19:28:00.081Z,2.10
2022-08-20T19:30:39.712Z,2.00
2022-08-20T19:33:08.701Z,3.22
2022-08-20T19:35:38.646Z,3.13
2022-08-20T19:38:16.377Z,2.40
2022-08-20T19:40:46.166Z,2.20
2022-08-20T19:43:17.473Z,1.83
2022-08-20T19:45:48.478Z,2.17
2022-08-20T19:48:49.477Z,2.28
2022-08-20T19:51:27.853Z,2.33
2022-08-20T19:53:55.119Z,2.53
2022-08-20T19:56:24.777Z,2.60
2022-08-20T19:59:06.996Z,2.40
2022-08-20T20:01:34.774Z,2.40
2022-08-20T20:04:05.891Z,2.20
2022-08-20T20:06:38.375Z,2.22
2022-08-20T20:09:14.328Z,2.30
2022-08-20T20:11:46.768Z,2.47
2022-08-20T20:14:21.244Z,2.40
2022-08-20T20:19:26.200Z,2.70
2022-08-20T20:22:19.704Z,2.50
2022-08-20T20:24:57.758Z,2.78
2022-08-20T20:27:27.110Z,2.35
2022-08-20T20:30:08.867Z,2.30
2022-08-20T20:32:40.395Z,2.38
2022-08-20T20:35:07.727Z,2.42
2022-08-20T20:37:49.600Z,3.00
2022-08-20T20:40:33.971Z,3.30
2022-08-20T20:43:08.968Z,3.17
2022-08-20T20:45:40.652Z,3.05
2022-08-20T20:48:26.409Z,3.33
2022-08-20T20:50:56.299Z,2.60
2022-08-20T20:53:47.297Z,2.42
2022-08-20T20:56:34.666Z,2.63
2022-08-20T20:59:06.509Z,2.50
2022-08-20T21:01:49.972Z,2.85
2022-08-20T21:04:22.332Z,2.83
2022-08-20T21:06:50.980Z,2.80
2022-08-20T21:09:19.350Z,3.10
2022-08-20T21:11:46.688Z,2.97
2022-08-20T21:14:13.872Z,2.78
2022-08-20T21:16:40.851Z,2.88
2022-08-20T21:19:12.444Z,2.90
2022-08-20T21:21:41.260Z,2.97
2022-08-20T21:24:09.094Z,2.97
2022-08-20T21:26:36.832Z,3.78
2022-08-20T21:29:06.512Z,3.08
2022-08-20T21:31:37.352Z,3.03
2022-08-20T21:34:04.219Z,3.17
2022-08-20T21:36:31.454Z,2.90
2022-08-20T21:38:58.792Z,3.20
2022-08-20T21:41:30.044Z,3.20
2022-08-20T21:43:59.213Z,3.30
2022-08-20T21:46:29.019Z,3.00
2022-08-20T21:48:56.650Z,2.60
2022-08-20T21:51:23.955Z,2.78
2022-08-20T21:53:52.087Z,2.70
2022-08-20T21:56:19.459Z,2.70
2022-08-20T21:58:47.901Z,2.40
2022-08-20T22:01:15.645Z,2.70
2022-08-20T22:03:44.500Z,2.75
2022-08-20T22:06:16.539Z,2.90
2022-08-20T22:08:43.605Z,3.13
2022-08-20T22:11:16.567Z,3.40
2022-08-20T22:13:44.105Z,3.60
2022-08-20T22:16:13.361Z,4.07
2022-08-20T22:18:41.228Z,3.72
2022-08-20T22:21:11.919Z,3.78
2022-08-20T22:23:40.401Z,3.50
2022-08-20T22:26:08.561Z,3.88
2022-08-20T22:28:35.777Z,3.30
2022-08-20T22:31:03.039Z,3.35
2022-08-20T22:33:31.460Z,3.45
2022-08-20T22:35:58.820Z,3.60
2022-08-20T22:38:26.227Z,3.28
2022-08-20T22:40:54.402Z,3.45
2022-08-20T22:43:22.376Z,3.25
2022-08-20T22:45:50.901Z,3.30
2022-08-20T22:48:19.609Z,3.40
2022-08-20T22:50:46.979Z,3.50
2022-08-20T22:53:14.676Z,3.53
2022-08-20T22:55:41.487Z,3.45
2022-08-20T22:58:11.175Z,3.58
2022-08-20T23:00:39.057Z,3.55
2022-08-20T23:03:06.294Z,3.22
2022-08-20T23:05:34.915Z,3.60
2022-08-20T23:08:02.494Z,3.28
2022-08-20T23:10:30.873Z,3.50
2022-08-20T23:12:58.045Z,3.50
2022-08-20T23:15:27.036Z,3.50
2022-08-20T23:18:03.652Z,3.63
2022-08-20T23:20:30.908Z,3.55
2022-08-20T23:22:57.950Z,3.40
2022-08-20T23:25:25.068Z,3.47
2022-08-20T23:28:03.502Z,3.83
2022-08-20T23:30:32.464Z,3.60
2022-08-20T23:33:01.755Z,3.70
2022-08-20T23:35:29.881Z,3.58
2022-08-20T23:38:00.295Z,3.72
2022-08-20T23:40:28.613Z,3.75
2022-08-20T23:42:56.393Z,4.00
2022-08-20T23:45:23.896Z,3.67
2022-08-20T23:47:51.649Z,3.60
2022-08-20T23:50:21.940Z,3.80
2022-08-20T23:52:51.902Z,3.50
2022-08-20T23:55:19.777Z,3.72
2022-08-20T23:57:46.772Z,3.80
